sensor_id;sensor_type;location;lat;lon;timestamp;P1;durP1;ratioP1;P2;durP2;ratioP2
18290;SDS011;9271;48.590;8.866;2022-07-10T00:02:04;3.50;;;2.70;;
18290;SDS011;9271;48.590;8.866;2022-07-10T00:04:31;2.73;;;2.53;;
18290;SDS011;9271;48.590;8.866;2022-07-10T00:06:58;4.30;;;2.60;;
18290;SDS011;9271;48.590;8.866;2022-07-10T00:09:27;3.73;;;2.80;;
18290;SDS011;9271;48.590;8.866;2022-07-10T00:11:54;3.23;;;2.93;;
18290;SDS011;9271;48.590;8.866;2022-07-10T00:14:20;3.40;;;3.00;;
18290;SDS011;9271;48.590;8.866;2022-07-10T00:16:48;2.60;;;2.40;;
18290;SDS011;9271;48.590;8.866;2022-07-10T00:19:15;3.63;;;3.03;;
18290;SDS011;9271;48.590;8.866;2022-07-10T00:21:42;3.10;;;2.90;;
18290;SDS011;9271;48.590;8.866;2022-07-10T00:24:08;3.70;;;3.37;;
18290;SDS011;9271;48.590;8.866;2022-07-10T00:26:36;3.47;;;3.17;;
18290;SDS011;9271;48.590;8.866;2022-07-10T00:29:02;3.67;;;3.37;;
18290;SDS011;9271;48.590;8.866;2022-07-10T00:31:29;3.83;;;3.10;;
18290;SDS011;9271;48.590;8.866;2022-07-10T00:33:57;3.93;;;3.30;;
18290;SDS011;9271;48.590;8.866;2022-07-10T00:36:24;5.73;;;3.10;;
18290;SDS011;9271;48.590;8.866;2022-07-10T00:38:50;3.63;;;3.10;;
18290;SDS011;9271;48.590;8.866;2022-07-10T00:41:17;3.50;;;3.20;;
18290;SDS011;9271;48.590;8.866;2022-07-10T00:43:50;5.53;;;3.17;;
18290;SDS011;9271;48.590;8.866;2022-07-10T00:46:17;5.43;;;3.30;;
18290;SDS011;9271;48.590;8.866;2022-07-10T00:48:45;3.33;;;2.83;;
18290;SDS011;9271;48.590;8.866;2022-07-10T00:51:13;4.73;;;3.23;;
18290;SDS011;9271;48.590;8.866;2022-07-10T00:53:40;3.20;;;2.90;;
18290;SDS011;9271;48.590;8.866;2022-07-10T00:56:07;3.53;;;3.23;;
18290;SDS011;9271;48.590;8.866;2022-07-10T00:58:35;3.13;;;2.93;;
18290;SDS011;9271;48.590;8.866;2022-07-10T01:01:02;6.33;;;3.20;;
18290;SDS011;9271;48.590;8.866;2022-07-10T01:03:29;3.50;;;3.20;;
18290;SDS011;9271;48.590;8.866;2022-07-10T01:05:55;3.70;;;3.40;;
18290;SDS011;9271;48.590;8.866;2022-07-10T01:08:24;3.73;;;3.33;;
18290;SDS011;9271;48.590;8.866;2022-07-10T01:10:51;3.90;;;3.60;;
18290;SDS011;9271;48.590;8.866;2022-07-10T01:13:18;4.63;;;3.10;;
18290;SDS011;9271;48.590;8.866;2022-07-10T01:15:45;4.13;;;3.70;;
18290;SDS011;9271;48.590;8.866;2022-07-10T01:18:12;3.43;;;3.20;;
18290;SDS011;9271;48.590;8.866;2022-07-10T01:20:39;3.53;;;3.30;;
18290;SDS011;9271;48.590;8.866;2022-07-10T01:23:07;4.50;;;3.50;;
18290;SDS011;9271;48.590;8.866;2022-07-10T01:25:34;6.77;;;3.73;;
18290;SDS011;9271;48.590;8.866;2022-07-10T01:28:01;3.80;;;3.50;;
18290;SDS011;9271;48.590;8.866;2022-07-10T01:30:27;3.70;;;3.40;;
18290;SDS011;9271;48.590;8.866;2022-07-10T01:32:54;3.73;;;3.43;;
18290;SDS011;9271;48.590;8.866;2022-07-10T01:35:21;3.80;;;3.50;;
18290;SDS011;9271;48.590;8.866;2022-07-10T01:37:48;5.43;;;3.33;;
18290;SDS011;9271;48.590;8.866;2022-07-10T01:40:16;4.07;;;3.63;;
18290;SDS011;9271;48.590;8.866;2022-07-10T01:42:42;5.87;;;3.80;;
18290;SDS011;9271;48.590;8.866;2022-07-10T01:45:10;5.30;;;3.87;;
18290;SDS011;9271;48.590;8.866;2022-07-10T01:47:37;4.33;;;3.93;;
18290;SDS011;9271;48.590;8.866;2022-07-10T01:50:04;4.50;;;4.13;;
18290;SDS011;9271;48.590;8.866;2022-07-10T01:52:32;4.00;;;3.60;;
18290;SDS011;9271;48.590;8.866;2022-07-10T01:54:59;5.07;;;4.00;;
18290;SDS011;9271;48.590;8.866;2022-07-10T01:57:27;4.80;;;4.30;;
18290;SDS011;9271;48.590;8.866;2022-07-10T01:59:54;4.60;;;3.97;;
18290;SDS011;9271;48.590;8.866;2022-07-10T02:02:20;4.67;;;4.27;;
18290;SDS011;9271;48.590;8.866;2022-07-10T02:04:47;5.07;;;4.10;;
18290;SDS011;9271;48.590;8.866;2022-07-10T02:07:13;4.10;;;3.77;;
18290;SDS011;9271;48.590;8.866;2022-07-10T02:09:41;6.37;;;4.30;;
18290;SDS011;9271;48.590;8.866;2022-07-10T02:12:09;4.67;;;4.27;;
18290;SDS011;9271;48.590;8.866;2022-07-10T02:14:40;7.07;;;4.73;;
18290;SDS011;9271;48.590;8.866;2022-07-10T02:17:07;5.00;;;4.50;;
18290;SDS011;9271;48.590;8.866;2022-07-10T02:19:36;5.07;;;4.67;;
18290;SDS011;9271;48.590;8.866;2022-07-10T02:22:03;4.93;;;4.53;;
18290;SDS011;9271;48.590;8.866;2022-07-10T02:24:30;5.30;;;4.90;;
18290;SDS011;9271;48.590;8.866;2022-07-10T02:26:57;5.37;;;4.87;;
18290;SDS011;9271;48.590;8.866;2022-07-10T02:29:23;6.03;;;5.43;;
18290;SDS011;9271;48.590;8.866;2022-07-10T02:31:52;6.03;;;5.53;;
18290;SDS011;9271;48.590;8.866;2022-07-10T02:34:18;6.43;;;5.50;;
18290;SDS011;9271;48.590;8.866;2022-07-10T02:36:45;6.43;;;5.43;;
18290;SDS011;9271;48.590;8.866;2022-07-10T02:39:12;5.90;;;5.40;;
18290;SDS011;9271;48.590;8.866;2022-07-10T02:41:39;6.10;;;5.57;;
18290;SDS011;9271;48.590;8.866;2022-07-10T02:44:06;6.40;;;5.90;;
18290;SDS011;9271;48.590;8.866;2022-07-10T02:46:32;6.10;;;5.60;;
18290;SDS011;9271;48.590;8.866;2022-07-10T02:49:00;6.23;;;5.80;;
18290;SDS011;9271;48.590;8.866;2022-07-10T02:51:29;6.63;;;5.87;;
18290;SDS011;9271;48.590;8.866;2022-07-10T02:53:55;6.80;;;6.20;;
18290;SDS011;9271;48.590;8.866;2022-07-10T02:56:23;7.33;;;6.73;;
18290;SDS011;9271;48.590;8.866;2022-07-10T02:58:50;7.67;;;6.90;;
18290;SDS011;9271;48.590;8.866;2022-07-10T03:01:16;8.10;;;7.30;;
18290;SDS011;9271;48.590;8.866;2022-07-10T03:03:43;7.70;;;7.10;;
18290;SDS011;9271;48.590;8.866;2022-07-10T03:06:11;8.23;;;7.53;;
18290;SDS011;9271;48.590;8.866;2022-07-10T03:08:38;8.77;;;8.07;;
18290;SDS011;9271;48.590;8.866;2022-07-10T03:11:04;10.03;;;9.10;;
18290;SDS011;9271;48.590;8.866;2022-07-10T03:13:31;11.00;;;10.03;;
18290;SDS011;9271;48.590;8.866;2022-07-10T03:15:58;11.10;;;10.10;;
18290;SDS011;9271;48.590;8.866;2022-07-10T03:18:24;12.13;;;11.03;;
18290;SDS011;9271;48.590;8.866;2022-07-10T03:20:51;12.60;;;11.50;;
18290;SDS011;9271;48.590;8.866;2022-07-10T03:23:19;12.97;;;11.77;;
18290;SDS011;9271;48.590;8.866;2022-07-10T03:25:46;13.80;;;12.40;;
18290;SDS011;9271;48.590;8.866;2022-07-10T03:28:12;13.47;;;11.47;;
18290;SDS011;9271;48.590;8.866;2022-07-10T03:30:39;12.87;;;11.50;;
18290;SDS011;9271;48.590;8.866;2022-07-10T03:33:06;11.93;;;10.83;;
18290;SDS011;9271;48.590;8.866;2022-07-10T03:35:33;12.13;;;11.10;;
18290;SDS011;9271;48.590;8.866;2022-07-10T03:37:59;11.93;;;10.93;;
18290;SDS011;9271;48.590;8.866;2022-07-10T03:40:28;11.50;;;10.33;;
18290;SDS011;9271;48.590;8.866;2022-07-10T03:42:56;12.53;;;10.70;;
18290;SDS011;9271;48.590;8.866;2022-07-10T03:45:23;11.07;;;9.90;;
18290;SDS011;9271;48.590;8.866;2022-07-10T03:47:50;11.10;;;10.00;;
18290;SDS011;9271;48.590;8.866;2022-07-10T03:50:16;11.20;;;10.20;;
18290;SDS011;9271;48.590;8.866;2022-07-10T03:52:43;11.63;;;10.63;;
18290;SDS011;9271;48.590;8.866;2022-07-10T03:55:11;11.40;;;10.27;;
18290;SDS011;9271;48.590;8.866;2022-07-10T03:57:39;11.23;;;10.07;;
18290;SDS011;9271;48.590;8.866;2022-07-10T04:00:21;10.77;;;9.50;;
18290;SDS011;9271;48.590;8.866;2022-07-10T04:02:53;11.37;;;10.27;;
18290;SDS011;9271;48.590;8.866;2022-07-10T04:05:21;10.27;;;9.47;;
18290;SDS011;9271;48.590;8.866;2022-07-10T04:07:48;11.63;;;10.50;;
18290;SDS011;9271;48.590;8.866;2022-07-10T04:10:15;11.70;;;10.57;;
18290;SDS011;9271;48.590;8.866;2022-07-10T04:12:43;11.07;;;10.00;;
18290;SDS011;9271;48.590;8.866;2022-07-10T04:15:10;10.93;;;9.93;;
18290;SDS011;9271;48.590;8.866;2022-07-10T04:17:37;9.87;;;8.97;;
18290;SDS011;9271;48.590;8.866;2022-07-10T04:20:04;9.17;;;8.33;;
18290;SDS011;9271;48.590;8.866;2022-07-10T04:22:32;9.17;;;8.27;;
18290;SDS011;9271;48.590;8.866;2022-07-10T04:24:58;10.33;;;7.87;;
18290;SDS011;9271;48.590;8.866;2022-07-10T04:27:25;7.60;;;6.80;;
18290;SDS011;9271;48.590;8.866;2022-07-10T04:29:53;7.63;;;6.70;;
18290;SDS011;9271;48.590;8.866;2022-07-10T04:32:20;7.30;;;6.70;;
18290;SDS011;9271;48.590;8.866;2022-07-10T04:34:47;7.83;;;6.60;;
18290;SDS011;9271;48.590;8.866;2022-07-10T04:37:13;7.30;;;6.43;;
18290;SDS011;9271;48.590;8.866;2022-07-10T04:39:40;7.57;;;6.87;;
18290;SDS011;9271;48.590;8.866;2022-07-10T04:42:07;5.67;;;5.17;;
18290;SDS011;9271;48.590;8.866;2022-07-10T04:44:35;8.63;;;5.47;;
18290;SDS011;9271;48.590;8.866;2022-07-10T04:47:03;6.23;;;5.40;;
18290;SDS011;9271;48.590;8.866;2022-07-10T04:49:32;5.60;;;5.10;;
18290;SDS011;9271;48.590;8.866;2022-07-10T04:51:59;5.67;;;5.17;;
18290;SDS011;9271;48.590;8.866;2022-07-10T04:54:26;5.50;;;5.10;;
18290;SDS011;9271;48.590;8.866;2022-07-10T04:56:53;5.87;;;5.13;;
18290;SDS011;9271;48.590;8.866;2022-07-10T04:59:19;6.27;;;5.00;;
18290;SDS011;9271;48.590;8.866;2022-07-10T05:01:46;8.27;;;5.30;;
18290;SDS011;9271;48.590;8.866;2022-07-10T05:04:14;5.20;;;4.50;;
18290;SDS011;9271;48.590;8.866;2022-07-10T05:06:41;6.63;;;4.60;;
18290;SDS011;9271;48.590;8.866;2022-07-10T05:09:07;5.17;;;3.70;;
18290;SDS011;9271;48.590;8.866;2022-07-10T05:11:34;5.27;;;4.00;;
18290;SDS011;9271;48.590;8.866;2022-07-10T05:14:00;4.53;;;3.80;;
18290;SDS011;9271;48.590;8.866;2022-07-10T05:16:27;5.47;;;3.40;;
18290;SDS011;9271;48.590;8.866;2022-07-10T05:18:54;6.10;;;3.50;;
18290;SDS011;9271;48.590;8.866;2022-07-10T05:21:22;5.20;;;3.33;;
18290;SDS011;9271;48.590;8.866;2022-07-10T05:23:50;3.87;;;3.10;;
18290;SDS011;9271;48.590;8.866;2022-07-10T05:26:17;6.90;;;3.10;;
18290;SDS011;9271;48.590;8.866;2022-07-10T05:28:44;3.10;;;2.80;;
18290;SDS011;9271;48.590;8.866;2022-07-10T05:31:10;3.90;;;3.17;;
18290;SDS011;9271;48.590;8.866;2022-07-10T05:33:37;4.90;;;2.80;;
18290;SDS011;9271;48.590;8.866;2022-07-10T05:36:05;4.27;;;3.20;;
18290;SDS011;9271;48.590;8.866;2022-07-10T05:38:34;4.90;;;3.10;;
18290;SDS011;9271;48.590;8.866;2022-07-10T05:41:01;4.83;;;3.13;;
18290;SDS011;9271;48.590;8.866;2022-07-10T05:43:27;4.77;;;3.00;;
18290;SDS011;9271;48.590;8.866;2022-07-10T05:45:55;7.30;;;3.90;;
18290;SDS011;9271;48.590;8.866;2022-07-10T05:48:21;6.27;;;3.70;;
18290;SDS011;9271;48.590;8.866;2022-07-10T05:50:48;3.73;;;2.93;;
18290;SDS011;9271;48.590;8.866;2022-07-10T05:53:15;5.60;;;2.90;;
18290;SDS011;9271;48.590;8.866;2022-07-10T05:55:45;5.57;;;3.40;;
18290;SDS011;9271;48.590;8.866;2022-07-10T05:58:12;6.93;;;3.00;;
18290;SDS011;9271;48.590;8.866;2022-07-10T06:00:39;4.30;;;2.70;;
18290;SDS011;9271;48.590;8.866;2022-07-10T06:03:07;3.20;;;2.80;;
18290;SDS011;9271;48.590;8.866;2022-07-10T06:05:34;3.90;;;2.93;;
18290;SDS011;9271;48.590;8.866;2022-07-10T06:08:01;6.00;;;2.80;;
18290;SDS011;9271;48.590;8.866;2022-07-10T06:10:27;5.27;;;2.57;;
18290;SDS011;9271;48.590;8.866;2022-07-10T06:12:55;2.47;;;2.27;;
18290;SDS011;9271;48.590;8.866;2022-07-10T06:15:22;2.60;;;2.10;;
18290;SDS011;9271;48.590;8.866;2022-07-10T06:17:49;3.90;;;2.43;;
18290;SDS011;9271;48.590;8.866;2022-07-10T06:20:15;3.10;;;2.30;;
18290;SDS011;9271;48.590;8.866;2022-07-10T06:22:42;3.40;;;2.00;;
18290;SDS011;9271;48.590;8.866;2022-07-10T06:25:09;4.53;;;2.60;;
18290;SDS011;9271;48.590;8.866;2022-07-10T06:27:36;3.80;;;2.00;;
18290;SDS011;9271;48.590;8.866;2022-07-10T06:30:05;5.23;;;1.97;;
18290;SDS011;9271;48.590;8.866;2022-07-10T06:32:32;4.50;;;2.10;;
18290;SDS011;9271;48.590;8.866;2022-07-10T06:34:59;5.37;;;2.33;;
18290;SDS011;9271;48.590;8.866;2022-07-10T06:37:26;3.57;;;2.10;;
18290;SDS011;9271;48.590;8.866;2022-07-10T06:39:53;5.23;;;2.10;;
18290;SDS011;9271;48.590;8.866;2022-07-10T06:42:20;2.37;;;1.80;;
18290;SDS011;9271;48.590;8.866;2022-07-10T06:44:46;4.13;;;2.27;;
18290;SDS011;9271;48.590;8.866;2022-07-10T06:47:15;3.13;;;1.90;;
18290;SDS011;9271;48.590;8.866;2022-07-10T06:50:02;3.87;;;2.13;;
18290;SDS011;9271;48.590;8.866;2022-07-10T06:52:30;5.13;;;2.37;;
18290;SDS011;9271;48.590;8.866;2022-07-10T06:54:57;4.47;;;2.00;;
18290;SDS011;9271;48.590;8.866;2022-07-10T06:57:25;3.37;;;1.93;;
18290;SDS011;9271;48.590;8.866;2022-07-10T06:59:51;4.17;;;2.00;;
18290;SDS011;9271;48.590;8.866;2022-07-10T07:02:19;4.30;;;1.67;;
18290;SDS011;9271;48.590;8.866;2022-07-10T07:04:46;5.13;;;2.40;;
18290;SDS011;9271;48.590;8.866;2022-07-10T07:07:13;3.10;;;1.73;;
18290;SDS011;9271;48.590;8.866;2022-07-10T07:09:41;4.47;;;1.67;;
18290;SDS011;9271;48.590;8.866;2022-07-10T07:12:08;7.67;;;2.03;;
18290;SDS011;9271;48.590;8.866;2022-07-10T07:14:35;3.37;;;1.70;;
18290;SDS011;9271;48.590;8.866;2022-07-10T07:17:03;3.20;;;1.47;;
18290;SDS011;9271;48.590;8.866;2022-07-10T07:19:35;3.77;;;1.67;;
18290;SDS011;9271;48.590;8.866;2022-07-10T07:22:19;2.93;;;1.80;;
18290;SDS011;9271;48.590;8.866;2022-07-10T07:25:04;3.33;;;1.90;;
18290;SDS011;9271;48.590;8.866;2022-07-10T07:27:32;6.03;;;1.87;;
18290;SDS011;9271;48.590;8.866;2022-07-10T07:30:01;3.13;;;1.73;;
18290;SDS011;9271;48.590;8.866;2022-07-10T07:32:29;3.03;;;1.80;;
18290;SDS011;9271;48.590;8.866;2022-07-10T07:34:57;5.53;;;1.77;;
18290;SDS011;9271;48.590;8.866;2022-07-10T07:37:34;2.77;;;1.63;;
18290;SDS011;9271;48.590;8.866;2022-07-10T07:40:02;5.43;;;1.60;;
18290;SDS011;9271;48.590;8.866;2022-07-10T07:42:29;3.47;;;1.43;;
18290;SDS011;9271;48.590;8.866;2022-07-10T07:44:56;2.60;;;1.43;;
18290;SDS011;9271;48.590;8.866;2022-07-10T07:47:22;2.80;;;1.60;;
18290;SDS011;9271;48.590;8.866;2022-07-10T07:49:49;5.03;;;1.80;;
18290;SDS011;9271;48.590;8.866;2022-07-10T07:52:17;5.50;;;1.80;;
18290;SDS011;9271;48.590;8.866;2022-07-10T07:54:44;3.77;;;1.90;;
18290;SDS011;9271;48.590;8.866;2022-07-10T07:57:11;3.00;;;1.70;;
18290;SDS011;9271;48.590;8.866;2022-07-10T07:59:37;2.27;;;1.60;;
18290;SDS011;9271;48.590;8.866;2022-07-10T08:02:05;3.30;;;1.50;;
18290;SDS011;9271;48.590;8.866;2022-07-10T08:04:32;2.43;;;1.67;;
18290;SDS011;9271;48.590;8.866;2022-07-10T08:06:59;5.03;;;1.80;;
18290;SDS011;9271;48.590;8.866;2022-07-10T08:09:28;3.00;;;1.90;;
18290;SDS011;9271;48.590;8.866;2022-07-10T08:11:55;3.13;;;1.50;;
18290;SDS011;9271;48.590;8.866;2022-07-10T08:14:21;2.03;;;1.50;;
18290;SDS011;9271;48.590;8.866;2022-07-10T08:16:48;3.43;;;1.80;;
18290;SDS011;9271;48.590;8.866;2022-07-10T08:19:15;3.07;;;1.60;;
18290;SDS011;9271;48.590;8.866;2022-07-10T08:21:42;2.50;;;1.87;;
18290;SDS011;9271;48.590;8.866;2022-07-10T08:24:09;7.37;;;1.53;;
18290;SDS011;9271;48.590;8.866;2022-07-10T08:26:37;3.67;;;1.70;;
18290;SDS011;9271;48.590;8.866;2022-07-10T08:29:04;3.67;;;1.80;;
18290;SDS011;9271;48.590;8.866;2022-07-10T08:31:30;4.13;;;1.90;;
18290;SDS011;9271;48.590;8.866;2022-07-10T08:33:58;5.40;;;1.53;;
18290;SDS011;9271;48.590;8.866;2022-07-10T08:36:25;3.67;;;1.90;;
18290;SDS011;9271;48.590;8.866;2022-07-10T08:38:52;4.40;;;1.73;;
18290;SDS011;9271;48.590;8.866;2022-07-10T08:41:20;2.93;;;1.77;;
18290;SDS011;9271;48.590;8.866;2022-07-10T08:43:51;4.33;;;2.03;;
18290;SDS011;9271;48.590;8.866;2022-07-10T08:46:18;2.00;;;1.47;;
18290;SDS011;9271;48.590;8.866;2022-07-10T08:48:46;4.20;;;1.70;;
18290;SDS011;9271;48.590;8.866;2022-07-10T08:51:15;4.00;;;1.80;;
18290;SDS011;9271;48.590;8.866;2022-07-10T08:53:49;2.23;;;1.87;;
18290;SDS011;9271;48.590;8.866;2022-07-10T08:56:17;4.80;;;1.80;;
18290;SDS011;9271;48.590;8.866;2022-07-10T08:58:44;4.40;;;1.90;;
18290;SDS011;9271;48.590;8.866;2022-07-10T09:01:14;3.43;;;1.80;;
18290;SDS011;9271;48.590;8.866;2022-07-10T09:03:47;4.57;;;2.20;;
18290;SDS011;9271;48.590;8.866;2022-07-10T09:06:14;3.07;;;1.70;;
18290;SDS011;9271;48.590;8.866;2022-07-10T09:08:45;2.87;;;1.63;;
18290;SDS011;9271;48.590;8.866;2022-07-10T09:11:24;3.77;;;2.13;;
18290;SDS011;9271;48.590;8.866;2022-07-10T09:13:54;3.67;;;2.13;;
18290;SDS011;9271;48.590;8.866;2022-07-10T09:16:23;2.50;;;1.70;;
18290;SDS011;9271;48.590;8.866;2022-07-10T09:18:51;3.40;;;1.83;;
18290;SDS011;9271;48.590;8.866;2022-07-10T09:21:17;2.70;;;1.67;;
18290;SDS011;9271;48.590;8.866;2022-07-10T09:23:44;3.47;;;1.90;;
18290;SDS011;9271;48.590;8.866;2022-07-10T09:26:11;3.07;;;1.60;;
18290;SDS011;9271;48.590;8.866;2022-07-10T09:28:38;1.87;;;1.50;;
18290;SDS011;9271;48.590;8.866;2022-07-10T09:31:04;1.63;;;1.33;;
18290;SDS011;9271;48.590;8.866;2022-07-10T09:33:32;2.40;;;1.90;;
18290;SDS011;9271;48.590;8.866;2022-07-10T09:36:02;2.23;;;1.70;;
18290;SDS011;9271;48.590;8.866;2022-07-10T09:38:49;3.57;;;1.90;;
18290;SDS011;9271;48.590;8.866;2022-07-10T09:41:19;7.60;;;1.70;;
18290;SDS011;9271;48.590;8.866;2022-07-10T09:43:51;3.30;;;1.80;;
18290;SDS011;9271;48.590;8.866;2022-07-10T09:46:19;3.23;;;1.80;;
18290;SDS011;9271;48.590;8.866;2022-07-10T09:48:48;3.57;;;1.77;;
18290;SDS011;9271;48.590;8.866;2022-07-10T09:51:30;1.63;;;1.53;;
18290;SDS011;9271;48.590;8.866;2022-07-10T09:54:00;2.00;;;1.53;;
18290;SDS011;9271;48.590;8.866;2022-07-10T09:56:29;3.17;;;1.70;;
18290;SDS011;9271;48.590;8.866;2022-07-10T09:58:59;4.30;;;1.70;;
18290;SDS011;9271;48.590;8.866;2022-07-10T10:01:27;3.57;;;1.60;;
18290;SDS011;9271;48.590;8.866;2022-07-10T10:03:55;5.83;;;1.63;;
18290;SDS011;9271;48.590;8.866;2022-07-10T10:06:25;5.70;;;1.70;;
18290;SDS011;9271;48.590;8.866;2022-07-10T10:08:56;1.83;;;1.50;;
18290;SDS011;9271;48.590;8.866;2022-07-10T10:11:27;4.27;;;1.73;;
18290;SDS011;9271;48.590;8.866;2022-07-10T10:13:56;2.73;;;1.60;;
18290;SDS011;9271;48.590;8.866;2022-07-10T10:16:23;2.87;;;1.83;;
18290;SDS011;9271;48.590;8.866;2022-07-10T10:18:55;2.10;;;1.63;;
18290;SDS011;9271;48.590;8.866;2022-07-10T10:21:39;2.03;;;1.50;;
18290;SDS011;9271;48.590;8.866;2022-07-10T10:24:06;3.10;;;1.70;;
18290;SDS011;9271;48.590;8.866;2022-07-10T10:26:33;4.90;;;1.80;;
18290;SDS011;9271;48.590;8.866;2022-07-10T10:29:00;3.77;;;1.90;;
18290;SDS011;9271;48.590;8.866;2022-07-10T10:31:29;2.87;;;1.80;;
18290;SDS011;9271;48.590;8.866;2022-07-10T10:33:58;3.60;;;1.70;;
18290;SDS011;9271;48.590;8.866;2022-07-10T10:36:45;4.93;;;1.67;;
18290;SDS011;9271;48.590;8.866;2022-07-10T10:39:13;3.63;;;1.77;;
18290;SDS011;9271;48.590;8.866;2022-07-10T10:41:44;1.70;;;1.60;;
18290;SDS011;9271;48.590;8.866;2022-07-10T10:44:26;2.10;;;1.50;;
18290;SDS011;9271;48.590;8.866;2022-07-10T10:46:58;4.37;;;1.73;;
18290;SDS011;9271;48.590;8.866;2022-07-10T10:49:50;3.97;;;1.70;;
18290;SDS011;9271;48.590;8.866;2022-07-10T10:52:18;3.27;;;1.53;;
18290;SDS011;9271;48.590;8.866;2022-07-10T10:54:59;3.87;;;1.80;;
18290;SDS011;9271;48.590;8.866;2022-07-10T10:57:39;2.50;;;1.40;;
18290;SDS011;9271;48.590;8.866;2022-07-10T11:00:13;1.80;;;1.50;;
18290;SDS011;9271;48.590;8.866;2022-07-10T11:03:11;2.20;;;1.60;;
18290;SDS011;9271;48.590;8.866;2022-07-10T11:05:50;1.60;;;1.50;;
18290;SDS011;9271;48.590;8.866;2022-07-10T11:08:37;2.60;;;1.50;;
18290;SDS011;9271;48.590;8.866;2022-07-10T11:14:08;2.97;;;1.60;;
18290;SDS011;9271;48.590;8.866;2022-07-10T11:16:37;3.80;;;1.63;;
18290;SDS011;9271;48.590;8.866;2022-07-10T11:19:13;2.10;;;1.50;;
18290;SDS011;9271;48.590;8.866;2022-07-10T11:21:46;2.27;;;1.50;;
18290;SDS011;9271;48.590;8.866;2022-07-10T11:24:19;1.67;;;1.50;;
18290;SDS011;9271;48.590;8.866;2022-07-10T11:27:08;2.17;;;1.50;;
18290;SDS011;9271;48.590;8.866;2022-07-10T11:29:41;2.30;;;1.50;;
18290;SDS011;9271;48.590;8.866;2022-07-10T11:32:14;4.23;;;1.70;;
18290;SDS011;9271;48.590;8.866;2022-07-10T11:34:42;1.80;;;1.60;;
18290;SDS011;9271;48.590;8.866;2022-07-10T11:37:14;2.10;;;1.50;;
18290;SDS011;9271;48.590;8.866;2022-07-10T11:39:41;2.57;;;1.50;;
18290;SDS011;9271;48.590;8.866;2022-07-10T11:42:08;3.07;;;1.50;;
18290;SDS011;9271;48.590;8.866;2022-07-10T11:44:35;2.70;;;1.40;;
18290;SDS011;9271;48.590;8.866;2022-07-10T11:47:02;1.93;;;1.60;;
18290;SDS011;9271;48.590;8.866;2022-07-10T11:49:30;2.67;;;1.50;;
18290;SDS011;9271;48.590;8.866;2022-07-10T11:52:00;2.27;;;1.40;;
18290;SDS011;9271;48.590;8.866;2022-07-10T11:54:29;2.27;;;1.40;;
18290;SDS011;9271;48.590;8.866;2022-07-10T11:57:03;1.97;;;1.30;;
18290;SDS011;9271;48.590;8.866;2022-07-10T11:59:31;2.03;;;1.30;;
18290;SDS011;9271;48.590;8.866;2022-07-10T12:01:58;2.87;;;1.53;;
18290;SDS011;9271;48.590;8.866;2022-07-10T12:04:25;2.03;;;1.70;;
18290;SDS011;9271;48.590;8.866;2022-07-10T12:06:54;2.63;;;1.83;;
18290;SDS011;9271;48.590;8.866;2022-07-10T12:09:22;3.23;;;2.30;;
18290;SDS011;9271;48.590;8.866;2022-07-10T12:11:59;2.60;;;1.60;;
18290;SDS011;9271;48.590;8.866;2022-07-10T12:14:26;3.83;;;1.90;;
18290;SDS011;9271;48.590;8.866;2022-07-10T12:16:53;4.27;;;1.40;;
18290;SDS011;9271;48.590;8.866;2022-07-10T12:19:22;1.37;;;0.97;;
18290;SDS011;9271;48.590;8.866;2022-07-10T12:21:50;2.93;;;1.20;;
18290;SDS011;9271;48.590;8.866;2022-07-10T12:24:18;2.13;;;1.30;;
18290;SDS011;9271;48.590;8.866;2022-07-10T12:26:46;2.57;;;1.30;;
18290;SDS011;9271;48.590;8.866;2022-07-10T12:29:20;2.03;;;1.57;;
18290;SDS011;9271;48.590;8.866;2022-07-10T12:31:47;2.97;;;1.50;;
18290;SDS011;9271;48.590;8.866;2022-07-10T12:34:15;3.23;;;1.40;;
18290;SDS011;9271;48.590;8.866;2022-07-10T12:36:43;2.57;;;1.50;;
18290;SDS011;9271;48.590;8.866;2022-07-10T12:39:11;1.17;;;1.10;;
18290;SDS011;9271;48.590;8.866;2022-07-10T12:41:54;2.17;;;1.30;;
18290;SDS011;9271;48.590;8.866;2022-07-10T12:44:33;2.10;;;1.30;;
18290;SDS011;9271;48.590;8.866;2022-07-10T12:47:02;2.97;;;1.00;;
18290;SDS011;9271;48.590;8.866;2022-07-10T12:49:46;1.83;;;1.20;;
18290;SDS011;9271;48.590;8.866;2022-07-10T12:52:18;2.47;;;1.07;;
18290;SDS011;9271;48.590;8.866;2022-07-10T12:54:46;1.53;;;1.00;;
18290;SDS011;9271;48.590;8.866;2022-07-10T12:57:12;5.63;;;1.13;;
18290;SDS011;9271;48.590;8.866;2022-07-10T12:59:40;4.57;;;1.30;;
18290;SDS011;9271;48.590;8.866;2022-07-10T13:02:15;2.23;;;1.10;;
18290;SDS011;9271;48.590;8.866;2022-07-10T13:04:51;1.20;;;1.10;;
18290;SDS011;9271;48.590;8.866;2022-07-10T13:07:18;1.13;;;1.03;;
18290;SDS011;9271;48.590;8.866;2022-07-10T13:09:46;3.40;;;1.10;;
18290;SDS011;9271;48.590;8.866;2022-07-10T13:12:15;1.87;;;1.20;;
18290;SDS011;9271;48.590;8.866;2022-07-10T13:14:43;3.03;;;1.10;;
18290;SDS011;9271;48.590;8.866;2022-07-10T13:17:10;1.57;;;0.90;;
18290;SDS011;9271;48.590;8.866;2022-07-10T13:19:36;3.40;;;1.10;;
18290;SDS011;9271;48.590;8.866;2022-07-10T13:22:03;1.83;;;1.10;;
18290;SDS011;9271;48.590;8.866;2022-07-10T13:24:30;0.80;;;0.80;;
18290;SDS011;9271;48.590;8.866;2022-07-10T13:26:57;1.95;;;1.13;;
18290;SDS011;9271;48.590;8.866;2022-07-10T13:29:23;3.10;;;1.10;;
18290;SDS011;9271;48.590;8.866;2022-07-10T13:31:52;3.63;;;0.88;;
18290;SDS011;9271;48.590;8.866;2022-07-10T13:34:18;1.95;;;0.90;;
18290;SDS011;9271;48.590;8.866;2022-07-10T13:36:45;1.10;;;1.00;;
18290;SDS011;9271;48.590;8.866;2022-07-10T13:39:12;1.20;;;0.82;;
18290;SDS011;9271;48.590;8.866;2022-07-10T13:41:39;2.55;;;1.15;;
18290;SDS011;9271;48.590;8.866;2022-07-10T13:44:05;2.17;;;1.10;;
18290;SDS011;9271;48.590;8.866;2022-07-10T13:46:32;2.35;;;1.17;;
18290;SDS011;9271;48.590;8.866;2022-07-10T13:49:00;1.25;;;0.98;;
18290;SDS011;9271;48.590;8.866;2022-07-10T13:51:27;0.80;;;0.80;;
18290;SDS011;9271;48.590;8.866;2022-07-10T13:53:54;2.05;;;1.10;;
18290;SDS011;9271;48.590;8.866;2022-07-10T13:56:21;1.48;;;1.00;;
18290;SDS011;9271;48.590;8.866;2022-07-10T13:58:48;1.77;;;0.82;;
18290;SDS011;9271;48.590;8.866;2022-07-10T14:01:15;2.47;;;1.17;;
18290;SDS011;9271;48.590;8.866;2022-07-10T14:03:42;4.95;;;1.33;;
18290;SDS011;9271;48.590;8.866;2022-07-10T14:06:10;1.08;;;1.02;;
18290;SDS011;9271;48.590;8.866;2022-07-10T14:08:36;1.63;;;1.10;;
18290;SDS011;9271;48.590;8.866;2022-07-10T14:11:03;1.98;;;0.90;;
18290;SDS011;9271;48.590;8.866;2022-07-10T14:13:30;4.22;;;1.20;;
18290;SDS011;9271;48.590;8.866;2022-07-10T14:15:57;1.70;;;1.10;;
18290;SDS011;9271;48.590;8.866;2022-07-10T14:18:23;3.33;;;1.20;;
18290;SDS011;9271;48.590;8.866;2022-07-10T14:21:05;3.80;;;1.10;;
18290;SDS011;9271;48.590;8.866;2022-07-10T14:23:35;4.53;;;1.30;;
18290;SDS011;9271;48.590;8.866;2022-07-10T14:26:03;4.38;;;1.10;;
18290;SDS011;9271;48.590;8.866;2022-07-10T14:28:31;1.27;;;1.05;;
18290;SDS011;9271;48.590;8.866;2022-07-10T14:30:59;2.67;;;1.30;;
18290;SDS011;9271;48.590;8.866;2022-07-10T14:33:28;1.33;;;1.00;;
18290;SDS011;9271;48.590;8.866;2022-07-10T14:35:55;3.47;;;1.23;;
18290;SDS011;9271;48.590;8.866;2022-07-10T14:38:22;1.63;;;0.98;;
18290;SDS011;9271;48.590;8.866;2022-07-10T14:40:50;4.70;;;1.35;;
18290;SDS011;9271;48.590;8.866;2022-07-10T14:43:18;4.78;;;1.13;;
18290;SDS011;9271;48.590;8.866;2022-07-10T14:45:44;5.40;;;1.40;;
18290;SDS011;9271;48.590;8.866;2022-07-10T14:48:11;4.18;;;1.00;;
18290;SDS011;9271;48.590;8.866;2022-07-10T14:50:38;1.60;;;0.95;;
18290;SDS011;9271;48.590;8.866;2022-07-10T14:53:05;2.42;;;1.17;;
18290;SDS011;9271;48.590;8.866;2022-07-10T14:55:32;2.08;;;1.10;;
18290;SDS011;9271;48.590;8.866;2022-07-10T14:58:00;2.95;;;1.27;;
18290;SDS011;9271;48.590;8.866;2022-07-10T15:00:27;1.75;;;1.10;;
18290;SDS011;9271;48.590;8.866;2022-07-10T15:02:54;3.80;;;1.00;;
18290;SDS011;9271;48.590;8.866;2022-07-10T15:05:20;4.85;;;1.10;;
18290;SDS011;9271;48.590;8.866;2022-07-10T15:07:47;2.08;;;1.15;;
18290;SDS011;9271;48.590;8.866;2022-07-10T15:10:14;1.48;;;1.10;;
18290;SDS011;9271;48.590;8.866;2022-07-10T15:12:43;1.00;;;0.88;;